createdAt,value
2023-02-09T00:01:31.377Z,102813.13
2023-02-09T00:03:59.914Z,102812.72
2023-02-09T00:06:30.059Z,102812.63
2023-02-09T00:08:59.181Z,102811.94
2023-02-09T00:11:49.371Z,102825.69
2023-02-09T00:14:21.213Z,102810.72
2023-02-09T00:16:49.449Z,102815.66
2023-02-09T00:19:17.110Z,102810.81
2023-02-09T00:21:44.497Z,102816.28
2023-02-09T00:24:11.528Z,102825.09
2023-02-09T00:26:39.542Z,102814.81
2023-02-09T00:29:07.338Z,102838.81
2023-02-09T00:31:34.811Z,102825.22
2023-02-09T00:34:03.548Z,102833.75
2023-02-09T00:36:31.026Z,102838.44
2023-02-09T00:38:58.260Z,102832.28
2023-02-09T00:41:43.753Z,102824.69
2023-02-09T00:44:11.926Z,102821.41
2023-02-09T00:46:38.901Z,102824.56
2023-02-09T00:49:05.934Z,102837.66
2023-02-09T00:51:32.817Z,102838.72
2023-02-09T00:54:02.070Z,102840.75
2023-02-09T00:56:29.204Z,102837.84
2023-02-09T00:58:56.147Z,102831.94
2023-02-09T01:01:23.323Z,102834.09
2023-02-09T01:03:50.426Z,102827.25
2023-02-09T01:06:17.388Z,102833.81
2023-02-09T01:08:44.140Z,102826.44
2023-02-09T01:11:14.182Z,102841.38
2023-02-09T01:13:42.418Z,102833.94
2023-02-09T01:16:12.053Z,102838.56
2023-02-09T01:18:42.078Z,102840.50
2023-02-09T01:21:20.981Z,102845.56
2023-02-09T01:23:48.436Z,102854.09
2023-02-09T01:26:17.698Z,102847.25
2023-02-09T01:28:45.147Z,102848.25
2023-02-09T01:31:29.987Z,102847.53
2023-02-09T01:33:58.739Z,102827.13
2023-02-09T01:36:28.382Z,102837.00
2023-02-09T01:38:58.320Z,102844.50
2023-02-09T01:41:26.010Z,102838.72
2023-02-09T01:43:57.486Z,102843.53
2023-02-09T01:46:26.743Z,102838.34
2023-02-09T01:49:01.732Z,102829.78
2023-02-09T01:51:29.567Z,102821.69
2023-02-09T01:53:57.312Z,102824.19
2023-02-09T01:56:29.161Z,102827.34
2023-02-09T01:58:56.284Z,102836.53
2023-02-09T02:01:23.621Z,102828.53
2023-02-09T02:03:51.319Z,102831.22
2023-02-09T02:06:18.720Z,102828.94
2023-02-09T02:09:17.906Z,102828.16
2023-02-09T02:11:47.810Z,102815.63
2023-02-09T02:14:36.021Z,102813.97
2023-02-09T02:17:24.589Z,102817.34
2023-02-09T02:20:00.691Z,102810.88
2023-02-09T02:22:46.822Z,102810.84
2023-02-09T02:25:32.634Z,102805.19
2023-02-09T02:28:16.893Z,102806.13
2023-02-09T02:30:50.969Z,102802.72
2023-02-09T02:33:36.338Z,102806.41
2023-02-09T02:36:08.435Z,102809.47
2023-02-09T02:38:47.584Z,102800.88
2023-02-09T02:41:29.176Z,102792.84
2023-02-09T02:44:04.014Z,102791.91
2023-02-09T02:46:36.134Z,102785.84
2023-02-09T02:49:10.002Z,102794.47
2023-02-09T02:51:45.032Z,102793.53
2023-02-09T02:54:16.435Z,102784.78
2023-02-09T02:56:49.994Z,102789.56
2023-02-09T02:59:25.097Z,102788.28
2023-02-09T03:02:06.441Z,102787.19
2023-02-09T03:04:34.518Z,102795.91
2023-02-09T03:07:01.345Z,102779.78
2023-02-09T03:09:28.320Z,102790.75
2023-02-09T03:11:58.098Z,102788.28
2023-02-09T03:14:41.127Z,102781.41
2023-02-09T03:17:33.548Z,102780.25
2023-02-09T03:20:06.634Z,102764.66
2023-02-09T03:22:38.660Z,102768.34
2023-02-09T03:25:15.733Z,102777.41
2023-02-09T03:27:50.664Z,102774.88
2023-02-09T03:30:17.606Z,102775.91
2023-02-09T03:32:46.221Z,102773.47
2023-02-09T03:35:16.809Z,102781.22
2023-02-09T03:37:43.827Z,102782.63
2023-02-09T03:40:11.035Z,102784.97
2023-02-09T03:42:38.045Z,102776.28
2023-02-09T03:45:08.088Z,102772.47
2023-02-09T03:47:35.363Z,102767.97
2023-02-09T03:50:02.245Z,102768.31
2023-02-09T03:52:31.056Z,102768.16
2023-02-09T03:54:57.913Z,102771.69
2023-02-09T03:57:24.882Z,102778.50
2023-02-09T03:59:52.065Z,102764.41
2023-02-09T04:02:19.161Z,102763.66
2023-02-09T04:04:46.309Z,102761.06
2023-02-09T04:07:14.039Z,102751.25
2023-02-09T04:09:40.750Z,102743.00
2023-02-09T04:12:07.630Z,102731.56
2023-02-09T04:14:34.664Z,102746.88
2023-02-09T04:17:01.556Z,102756.75
2023-02-09T04:19:28.469Z,102752.59
2023-02-09T04:21:56.016Z,102735.28
2023-02-09T04:24:29.229Z,102725.53
2023-02-09T04:26:56.068Z,102728.47
2023-02-09T04:29:22.917Z,102744.22
2023-02-09T04:31:49.901Z,102742.28
2023-02-09T04:34:16.826Z,102715.53
2023-02-09T04:36:44.478Z,102708.19
2023-02-09T04:39:11.315Z,102719.81
2023-02-09T04:41:38.544Z,102725.81
2023-02-09T04:44:05.363Z,102720.13
2023-02-09T04:46:32.250Z,102718.81
2023-02-09T04:48:59.071Z,102716.50
2023-02-09T04:51:26.048Z,102714.91
2023-02-09T04:53:52.951Z,102709.06
2023-02-09T04:56:19.681Z,102714.69
2023-02-09T04:59:05.061Z,102729.13
2023-02-09T05:01:32.823Z,102731.31
2023-02-09T05:03:59.622Z,102726.44
2023-02-09T05:06:26.566Z,102705.50
2023-02-09T05:08:54.656Z,102714.63
2023-02-09T05:11:21.464Z,102715.72
2023-02-09T05:13:48.314Z,102717.63
2023-02-09T05:16:17.848Z,102722.97
2023-02-09T05:18:45.166Z,102721.06
2023-02-09T05:21:14.319Z,102713.25
2023-02-09T05:23:41.547Z,102727.69
2023-02-09T05:26:08.759Z,102736.78
2023-02-09T05:28:38.396Z,102736.78
2023-02-09T05:31:05.460Z,102739.44
2023-02-09T05:33:32.479Z,102733.88
2023-02-09T05:35:59.413Z,102721.47
2023-02-09T05:38:26.380Z,102723.41
2023-02-09T05:40:53.918Z,102724.22
2023-02-09T05:43:20.688Z,102721.16
2023-02-09T05:45:47.559Z,102727.63
2023-02-09T05:48:14.298Z,102732.63
2023-02-09T05:50:41.685Z,102744.44
2023-02-09T05:53:09.400Z,102735.66
2023-02-09T05:55:36.575Z,102754.53
2023-02-09T05:58:03.819Z,102759.09
2023-02-09T06:00:30.710Z,102763.88
2023-02-09T06:02:58.839Z,102775.16
2023-02-09T06:05:26.924Z,102760.72
2023-02-09T06:07:53.844Z,102761.13
2023-02-09T06:10:20.709Z,102768.22
2023-02-09T06:12:48.064Z,102775.97
2023-02-09T06:15:16.616Z,102764.75
2023-02-09T06:17:43.551Z,102753.47
2023-02-09T06:20:11.366Z,102751.09
2023-02-09T06:22:38.559Z,102763.09
2023-02-09T06:25:06.082Z,102760.53
2023-02-09T06:27:32.806Z,102756.63
2023-02-09T06:29:59.647Z,102750.69
2023-02-09T06:32:26.745Z,102744.78
2023-02-09T06:34:53.978Z,102733.75
2023-02-09T06:37:22.324Z,102739.13
2023-02-09T06:39:49.143Z,102746.78
2023-02-09T06:42:15.886Z,102740.63
2023-02-09T06:44:42.740Z,102732.38
2023-02-09T06:47:09.635Z,102743.13
2023-02-09T06:49:36.800Z,102751.38
2023-02-09T06:52:03.901Z,102752.47
2023-02-09T06:54:30.745Z,102753.91
2023-02-09T06:56:57.668Z,102762.84
2023-02-09T06:59:28.011Z,102771.53
2023-02-09T07:01:55.858Z,102750.19
2023-02-09T07:04:22.746Z,102773.81
2023-02-09T07:06:49.668Z,102780.59
2023-02-09T07:09:16.785Z,102776.59
2023-02-09T07:11:44.380Z,102784.66
2023-02-09T07:14:11.714Z,102790.72
2023-02-09T07:16:38.885Z,102786.19
2023-02-09T07:19:05.727Z,102800.50
2023-02-09T07:21:35.066Z,102786.78
2023-02-09T07:24:01.964Z,102801.19
2023-02-09T07:26:31.988Z,102810.66
2023-02-09T07:28:58.752Z,102821.75
2023-02-09T07:31:27.314Z,102828.09
2023-02-09T07:36:42.801Z,102832.50
2023-02-09T07:39:09.717Z,102824.81
2023-02-09T07:41:36.828Z,102830.66
2023-02-09T07:44:03.693Z,102842.84
2023-02-09T07:46:30.485Z,102839.97
2023-02-09T07:49:00.060Z,102849.13
2023-02-09T07:51:28.948Z,102840.84
2023-02-09T07:53:56.873Z,102840.63
2023-02-09T07:56:24.192Z,102821.22
2023-02-09T07:58:51.772Z,102824.13
2023-02-09T08:01:20.717Z,102825.91
2023-02-09T08:03:49.938Z,102829.41
2023-02-09T08:06:28.013Z,102830.38
2023-02-09T08:09:04.613Z,102825.63
2023-02-09T08:11:40.228Z,102827.75
2023-02-09T08:14:21.301Z,102838.69
2023-02-09T08:16:50.046Z,102838.06
2023-02-09T08:19:22.482Z,102835.00
2023-02-09T08:21:50.471Z,102840.47
2023-02-09T08:24:18.818Z,102827.47
2023-02-09T08:26:46.105Z,102838.34
2023-02-09T08:29:13.451Z,102833.47
2023-02-09T08:31:40.847Z,102839.47
2023-02-09T08:34:11.652Z,102828.13
2023-02-09T08:36:40.018Z,102816.66
2023-02-09T08:39:07.409Z,102819.03
2023-02-09T08:41:34.870Z,102826.72
2023-02-09T08:44:02.509Z,102819.97
2023-02-09T08:46:29.511Z,102824.34
2023-02-09T08:48:56.451Z,102828.28
2023-02-09T08:51:23.411Z,102826.84
2023-02-09T08:53:52.567Z,102825.72
2023-02-09T08:56:20.960Z,102834.22
2023-02-09T08:58:50.052Z,102830.34
2023-02-09T09:01:17.658Z,102844.28
2023-02-09T09:03:44.526Z,102838.34
2023-02-09T09:06:12.462Z,102841.44
2023-02-09T09:08:40.005Z,102841.59
2023-02-09T09:11:10.202Z,102829.56
2023-02-09T09:13:37.088Z,102836.66
2023-02-09T09:16:05.306Z,102835.81
2023-02-09T09:18:32.220Z,102834.78
2023-02-09T09:20:58.978Z,102822.53
2023-02-09T09:23:25.926Z,102828.47
2023-02-09T09:25:52.755Z,102824.41
2023-02-09T09:28:19.724Z,102824.75
2023-02-09T09:30:47.055Z,102819.94
2023-02-09T09:33:13.883Z,102826.91
2023-02-09T09:35:40.692Z,102836.66
2023-02-09T09:38:07.540Z,102833.53
2023-02-09T09:40:35.973Z,102827.88
2023-02-09T09:43:05.462Z,102837.38
2023-02-09T09:45:35.100Z,102841.47
2023-02-09T09:48:02.074Z,102845.91
2023-02-09T09:50:35.783Z,102852.91
2023-02-09T09:53:09.306Z,102844.72
2023-02-09T09:55:36.996Z,102858.00
2023-02-09T09:58:05.344Z,102844.75
2023-02-09T10:00:36.183Z,102840.09
2023-02-09T10:03:04.350Z,102840.72
2023-02-09T10:05:39.189Z,102848.84
2023-02-09T10:08:15.090Z,102854.03
2023-02-09T10:11:01.567Z,102863.72
2023-02-09T10:13:44.561Z,102880.00
2023-02-09T10:16:17.285Z,102882.09
2023-02-09T10:18:44.621Z,102878.25
2023-02-09T10:21:14.288Z,102876.28
2023-02-09T10:23:42.824Z,102868.28
2023-02-09T10:26:09.554Z,102863.31
2023-02-09T10:28:46.543Z,102865.88
2023-02-09T10:31:23.563Z,102874.72
2023-02-09T10:33:58.594Z,102881.63
2023-02-09T10:36:37.277Z,102883.25
2023-02-09T10:39:16.932Z,102874.47
2023-02-09T10:41:47.263Z,102867.97
2023-02-09T10:44:24.248Z,102876.69
2023-02-09T10:47:11.904Z,102879.34
2023-02-09T10:49:42.199Z,102876.38
2023-02-09T10:52:19.469Z,102878.72
2023-02-09T10:54:59.859Z,102875.22
2023-02-09T10:57:36.881Z,102872.66
2023-02-09T11:00:28.200Z,102879.06
2023-02-09T11:03:01.927Z,102861.03
2023-02-09T11:05:32.272Z,102862.81
2023-02-09T11:08:14.184Z,102862.38
2023-02-09T11:10:45.485Z,102872.75
2023-02-09T11:13:22.937Z,102874.41
2023-02-09T11:16:02.529Z,102884.09
2023-02-09T11:18:33.722Z,102909.72
2023-02-09T11:21:13.169Z,102890.06
2023-02-09T11:24:13.869Z,102887.66
2023-02-09T11:27:36.792Z,102897.38
2023-02-09T11:30:23.885Z,102892.88
2023-02-09T11:32:59.451Z,102883.97
2023-02-09T11:36:08.488Z,102874.09
2023-02-09T11:38:46.632Z,102864.66
2023-02-09T11:41:36.968Z,102866.63
2023-02-09T11:44:06.050Z,102858.72
2023-02-09T11:46:34.036Z,102860.13
2023-02-09T11:49:04.953Z,102856.97
2023-02-09T11:51:34.943Z,102854.31
2023-02-09T11:54:08.179Z,102856.78
2023-02-09T11:56:37.520Z,102863.69
2023-02-09T11:59:10.818Z,102860.88
2023-02-09T12:02:15.459Z,102867.84
2023-02-09T12:04:43.632Z,102879.72
2023-02-09T12:07:18.742Z,102862.69
2023-02-09T12:09:51.351Z,102856.16
2023-02-09T12:12:29.431Z,102864.72
2023-02-09T12:15:22.881Z,102854.91
2023-02-09T12:18:26.361Z,102850.59
2023-02-09T12:20:56.418Z,102856.38
2023-02-09T12:23:33.792Z,102850.88
2023-02-09T12:26:12.907Z,102864.41
2023-02-09T12:28:47.031Z,102858.53
2023-02-09T12:31:19.578Z,102847.97
2023-02-09T12:33:47.845Z,102858.84
2023-02-09T12:36:16.096Z,102853.63
2023-02-09T12:39:04.031Z,102854.13
2023-02-09T12:41:34.379Z,102857.81
2023-02-09T12:44:10.644Z,102853.88
2023-02-09T12:46:56.150Z,102850.63
2023-02-09T12:49:29.744Z,102862.81
2023-02-09T12:51:59.648Z,102855.16
2023-02-09T12:54:48.439Z,102865.13
2023-02-09T12:57:15.111Z,102870.47
2023-02-09T12:59:55.289Z,102866.13
2023-02-09T13:02:28.545Z,102867.09
2023-02-09T13:05:12.238Z,102858.94
2023-02-09T13:08:02.036Z,102862.84
2023-02-09T13:13:47.055Z,102866.22
2023-02-09T13:16:23.385Z,102864.63
2023-02-09T13:19:14.221Z,102850.75
2023-02-09T13:21:59.647Z,102845.31
2023-02-09T13:24:36.513Z,102835.22
2023-02-09T13:27:03.612Z,102843.75
2023-02-09T13:29:33.398Z,102839.56
2023-02-09T13:32:15.417Z,102837.84
2023-02-09T13:35:01.465Z,102839.22
2023-02-09T13:37:34.588Z,102822.25
2023-02-09T13:40:09.912Z,102828.78
2023-02-09T13:42:37.288Z,102824.66
2023-02-09T13:45:16.800Z,102839.84
2023-02-09T13:47:44.049Z,102831.75
2023-02-09T13:50:19.366Z,102841.91
2023-02-09T13:52:46.229Z,102838.59
2023-02-09T13:55:21.677Z,102840.31
2023-02-09T13:57:59.529Z,102834.06
2023-02-09T14:00:35.606Z,102838.22
2023-02-09T14:03:34.863Z,102845.97
2023-02-09T14:06:09.090Z,102834.38
2023-02-09T14:08:40.662Z,102839.69
2023-02-09T14:11:42.352Z,102853.16
2023-02-09T14:14:20.098Z,102843.81
2023-02-09T14:16:53.815Z,102853.25
2023-02-09T14:19:33.268Z,102850.63
2023-02-09T14:22:00.185Z,102851.94
2023-02-09T14:24:40.866Z,102862.72
2023-02-09T14:27:20.380Z,102861.13
2023-02-09T14:29:48.597Z,102861.25
2023-02-09T14:32:45.326Z,102849.53
2023-02-09T14:35:30.082Z,102861.97
2023-02-09T14:37:59.731Z,102867.78
2023-02-09T14:40:37.055Z,102867.31
2023-02-09T14:43:25.100Z,102862.16
2023-02-09T14:46:01.301Z,102861.38
2023-02-09T14:48:29.993Z,102869.44
2023-02-09T14:50:59.847Z,102867.13
2023-02-09T14:53:29.640Z,102859.81
2023-02-09T14:55:57.877Z,102866.84
2023-02-09T14:58:30.409Z,102865.22
2023-02-09T15:00:59.959Z,102868.19
2023-02-09T15:03:28.050Z,102869.94
2023-02-09T15:05:57.870Z,102874.53
2023-02-09T15:08:26.269Z,102887.28
2023-02-09T15:11:00.809Z,102883.81
2023-02-09T15:13:30.525Z,102888.03
2023-02-09T15:15:57.566Z,102880.34
2023-02-09T15:18:27.785Z,102888.25
2023-02-09T15:20:54.730Z,102888.06
2023-02-09T15:23:21.582Z,102896.34
2023-02-09T15:25:48.663Z,102898.13
2023-02-09T15:28:30.223Z,102890.91
2023-02-09T15:30:59.084Z,102884.66
2023-02-09T15:33:27.409Z,102884.31
2023-02-09T15:35:54.424Z,102879.72
2023-02-09T15:38:21.308Z,102880.75
2023-02-09T15:41:08.179Z,102896.28
2023-02-09T15:43:54.167Z,102894.38
2023-02-09T15:46:39.605Z,102895.56
2023-02-09T15:49:07.780Z,102902.44
2023-02-09T15:51:41.024Z,102899.38
2023-02-09T15:54:19.591Z,102907.38
2023-02-09T15:56:46.717Z,102903.81
2023-02-09T15:59:19.612Z,102913.06
2023-02-09T16:01:47.492Z,102913.72
2023-02-09T16:04:14.853Z,102914.47
2023-02-09T16:06:50.221Z,102917.31
2023-02-09T16:09:22.517Z,102918.47
2023-02-09T16:11:49.632Z,102926.06
2023-02-09T16:14:20.529Z,102924.31
2023-02-09T16:16:48.192Z,102928.53
2023-02-09T16:19:15.442Z,102932.94
2023-02-09T16:21:44.585Z,102937.34
2023-02-09T16:24:21.876Z,102946.34
2023-02-09T16:26:49.224Z,102960.91
2023-02-09T16:29:16.288Z,102966.31
2023-02-09T16:31:43.139Z,102964.88
2023-02-09T16:34:15.393Z,102963.47
2023-02-09T16:36:43.110Z,102961.63
2023-02-09T16:39:21.388Z,102966.91
2023-02-09T16:41:50.533Z,102973.63
2023-02-09T16:44:21.900Z,102976.72
2023-02-09T16:46:51.442Z,102969.50
2023-02-09T16:49:35.604Z,102977.44
2023-02-09T16:52:06.330Z,102973.53
2023-02-09T16:54:37.381Z,102976.34
2023-02-09T16:57:04.494Z,102971.78
2023-02-09T16:59:31.297Z,102973.34
2023-02-09T17:02:00.108Z,102981.75
2023-02-09T17:04:27.276Z,102987.94
2023-02-09T17:06:54.143Z,102986.94
2023-02-09T17:09:20.978Z,102997.13
2023-02-09T17:11:47.763Z,103000.13
2023-02-09T17:14:14.647Z,102990.72
2023-02-09T17:16:44.612Z,103005.56
2023-02-09T17:19:16.249Z,103011.66
2023-02-09T17:21:43.022Z,103008.09
2023-02-09T17:24:13.787Z,103009.84
2023-02-09T17:26:44.098Z,103010.50
2023-02-09T17:29:11.445Z,103011.38
2023-02-09T17:31:52.265Z,103022.38
2023-02-09T17:34:20.631Z,103023.41
2023-02-09T17:36:47.534Z,103024.34
2023-02-09T17:39:19.600Z,103037.50
2023-02-09T17:41:48.589Z,103030.69
2023-02-09T17:44:26.431Z,103041.31
2023-02-09T17:46:58.726Z,103041.44
2023-02-09T17:49:25.492Z,103040.16
2023-02-09T17:51:52.985Z,103045.47
2023-02-09T17:54:21.386Z,103056.94
2023-02-09T17:56:48.237Z,103057.31
2023-02-09T17:59:19.772Z,103052.16
2023-02-09T18:01:50.028Z,103059.28
2023-02-09T18:04:21.767Z,103058.00
2023-02-09T18:06:48.718Z,103062.72
2023-02-09T18:09:15.581Z,103061.94
2023-02-09T18:11:45.343Z,103062.50
2023-02-09T18:14:13.976Z,103066.34
2023-02-09T18:16:42.579Z,103062.47
2023-02-09T18:19:10.388Z,103076.72
2023-02-09T18:21:37.706Z,103068.72
2023-02-09T18:24:06.071Z,103076.97
2023-02-09T18:26:33.811Z,103081.06
2023-02-09T18:29:00.730Z,103074.66
2023-02-09T18:31:27.507Z,103076.63
2023-02-09T18:33:54.397Z,103086.63
2023-02-09T18:36:21.131Z,103089.84
2023-02-09T18:38:49.168Z,103082.91
2023-02-09T18:41:15.896Z,103087.41
2023-02-09T18:43:44.725Z,103092.84
2023-02-09T18:46:15.469Z,103092.19
2023-02-09T18:48:43.144Z,103109.25
2023-02-09T18:51:10.333Z,103099.84
2023-02-09T18:53:38.414Z,103103.59
2023-02-09T18:56:05.579Z,103101.00
2023-02-09T18:58:32.637Z,103098.31
2023-02-09T19:00:59.367Z,103097.22
2023-02-09T19:03:26.540Z,103093.81
2023-02-09T19:05:53.426Z,103104.19
2023-02-09T19:08:20.513Z,103116.25
2023-02-09T19:10:47.318Z,103114.38
2023-02-09T19:13:14.087Z,103121.16
2023-02-09T19:15:40.882Z,103118.44
2023-02-09T19:18:07.895Z,103116.66
2023-02-09T19:20:34.689Z,103120.03
2023-02-09T19:23:03.900Z,103116.19
2023-02-09T19:25:31.048Z,103128.03
2023-02-09T19:27:59.080Z,103123.19
2023-02-09T19:30:26.627Z,103136.84
2023-02-09T19:32:55.222Z,103139.53
2023-02-09T19:35:22.880Z,103134.59
2023-02-09T19:37:53.673Z,103144.34
2023-02-09T19:40:43.436Z,103143.44
2023-02-09T19:43:12.257Z,103141.66
2023-02-09T19:45:39.400Z,103143.19
2023-02-09T19:48:07.894Z,103135.88
2023-02-09T19:50:37.100Z,103141.31
2023-02-09T19:53:06.105Z,103142.28
2023-02-09T19:55:33.681Z,103142.25
2023-02-09T19:58:00.667Z,103150.16
2023-02-09T20:00:27.563Z,103154.44
2023-02-09T20:02:54.899Z,103150.56
2023-02-09T20:05:21.887Z,103158.25
2023-02-09T20:07:49.218Z,103155.22
2023-02-09T20:10:16.083Z,103160.88
2023-02-09T20:15:11.792Z,103153.69
2023-02-09T20:17:38.826Z,103166.94
2023-02-09T20:20:06.109Z,103176.59
2023-02-09T20:22:34.948Z,103175.44
2023-02-09T20:25:01.902Z,103171.81
2023-02-09T20:27:28.996Z,103171.81
2023-02-09T20:30:05.848Z,103177.19
2023-02-09T20:32:33.875Z,103176.13
2023-02-09T20:35:00.677Z,103176.13
2023-02-09T20:37:30.964Z,103177.06
2023-02-09T20:39:58.557Z,103181.06
2023-02-09T20:42:44.196Z,103195.22
2023-02-09T20:45:34.195Z,103190.19
2023-02-09T20:48:01.574Z,103196.75
2023-02-09T20:50:28.467Z,103198.28
2023-02-09T20:52:55.406Z,103191.97
2023-02-09T20:55:22.703Z,103194.44
2023-02-09T20:57:50.361Z,103191.38
2023-02-09T21:00:20.569Z,103186.91
2023-02-09T21:02:47.942Z,103181.72
2023-02-09T21:05:20.016Z,103195.25
2023-02-09T21:07:47.215Z,103206.72
2023-02-09T21:10:15.732Z,103208.16
2023-02-09T21:12:44.163Z,103214.59
2023-02-09T21:15:11.224Z,103212.13
2023-02-09T21:17:43.934Z,103215.06
2023-02-09T21:20:17.404Z,103219.03
2023-02-09T21:22:45.375Z,103210.34
2023-02-09T21:25:13.812Z,103223.00
2023-02-09T21:27:41.122Z,103223.72
2023-02-09T21:30:08.375Z,103210.94
2023-02-09T21:32:35.439Z,103213.88
2023-02-09T21:35:02.383Z,103210.63
2023-02-09T21:37:34.774Z,103216.91
2023-02-09T21:40:03.299Z,103214.41
2023-02-09T21:42:33.695Z,103217.16
2023-02-09T21:45:03.166Z,103234.19
2023-02-09T21:47:42.696Z,103230.03
2023-02-09T21:50:11.818Z,103219.56
2023-02-09T21:52:42.976Z,103219.09
2023-02-09T21:55:09.978Z,103224.28
2023-02-09T21:57:40.859Z,103231.28
2023-02-09T22:00:09.490Z,103221.25
2023-02-09T22:02:39.979Z,103227.34
2023-02-09T22:05:07.693Z,103233.22
2023-02-09T22:07:42.875Z,103224.16
2023-02-09T22:10:21.288Z,103228.97
2023-02-09T22:12:55.037Z,103222.31
2023-02-09T22:15:21.930Z,103225.38
2023-02-09T22:17:49.543Z,103225.59
2023-02-09T22:20:16.844Z,103241.31
2023-02-09T22:22:45.417Z,103235.81
2023-02-09T22:25:12.569Z,103223.81
2023-02-09T22:27:39.439Z,103225.56
2023-02-09T22:30:06.652Z,103221.84
2023-02-09T22:32:37.286Z,103215.88
2023-02-09T22:35:06.107Z,103207.09
2023-02-09T22:37:32.822Z,103220.22
2023-02-09T22:40:02.429Z,103227.47
2023-02-09T22:42:34.594Z,103219.59
2023-02-09T22:45:11.988Z,103234.56
2023-02-09T22:47:43.282Z,103246.75
2023-02-09T22:50:10.701Z,103230.56
2023-02-09T22:52:46.362Z,103235.13
2023-02-09T22:55:16.142Z,103232.75
2023-02-09T22:57:57.725Z,103235.91
2023-02-09T23:00:28.890Z,103239.69
2023-02-09T23:02:57.873Z,103223.25
2023-02-09T23:05:24.899Z,103223.78
2023-02-09T23:07:58.202Z,103219.66
2023-02-09T23:10:25.298Z,103214.13
2023-02-09T23:12:52.271Z,103229.88
2023-02-09T23:15:20.679Z,103231.84
2023-02-09T23:17:47.411Z,103236.41
2023-02-09T23:20:23.413Z,103230.88
2023-02-09T23:22:54.421Z,103222.16
2023-02-09T23:25:24.336Z,103228.88
2023-02-09T23:27:52.113Z,103227.06
2023-02-09T23:30:19.123Z,103215.25
2023-02-09T23:32:45.951Z,103229.59
2023-02-09T23:35:14.309Z,103230.22
2023-02-09T23:37:41.413Z,103230.16
2023-02-09T23:40:08.758Z,103241.69
2023-02-09T23:42:35.487Z,103237.88
2023-02-09T23:45:02.344Z,103239.38
2023-02-09T23:47:29.037Z,103228.97
2023-02-09T23:49:57.168Z,103240.63
2023-02-09T23:52:23.926Z,103243.50
2023-02-09T23:54:50.731Z,103243.06
2023-02-09T23:57:20.140Z,103237.28
2023-02-09T23:59:47.040Z,103228.72
